Time;durP1;ratioP1;P1;durP2;ratioP2;P2;SDS_P1;SDS_P2;PMS_P1;PMS_P2;Temp;Humidity;BMP_temperature;BMP_pressure;BME280_temperature;BME280_humidity;BME280_pressure;Samples;Min_cycle;Max_cycle;Signal;HPM_P1;HPM_P2
2021/09/14 00:02:03;;;;;;;0.20;0.10;;;;;;;18.66;58.36;100152.78;4945635;28;20035;-74
2021/09/14 00:04:28;;;;;;;0.10;0.10;;;;;;;18.65;58.49;100139.25;4964310;28;20026;-76
2021/09/14 00:06:54;;;;;;;0.47;0.22;;;;;;;18.64;57.92;100134.84;4980597;28;20034;-74
2021/09/14 00:09:19;;;;;;;0.20;0.15;;;;;;;18.64;58.24;100143.97;4965322;28;20041;-75
2021/09/14 00:11:44;;;;;;;0.28;0.20;;;;;;;18.63;58.24;100139.59;4979549;28;20050;-74
2021/09/14 00:14:10;;;;;;;0.50;0.40;;;;;;;18.65;57.99;100137.28;4981053;28;20027;-75
2021/09/14 00:16:36;;;;;;;0.60;0.60;;;;;;;18.64;58.23;100135.66;4987794;28;20031;-75
2021/09/14 00:19:20;;;;;;;0.45;0.45;;;;;;;18.65;58.52;100133.72;4986955;28;20047;-79
2021/09/14 00:21:46;;;;;;;0.40;0.40;;;;;;;18.56;58.77;100128.19;4986743;28;20400;-74
2021/09/14 00:24:12;;;;;;;0.50;0.50;;;;;;;18.59;58.42;100127.53;4979448;28;20065;-75
2021/09/14 00:26:37;;;;;;;0.70;0.32;;;;;;;18.58;58.47;100125.91;4983794;28;20038;-75
2021/09/14 00:29:03;;;;;;;0.35;0.35;;;;;;;18.58;58.27;100117.59;4949608;28;20031;-76
2021/09/14 00:31:29;;;;;;;0.50;0.30;;;;;;;18.57;58.49;100102.09;4984105;28;20027;-76
2021/09/14 00:33:55;;;;;;;0.80;0.40;;;;;;;18.57;58.82;100102.09;4965316;28;20042;-75
2021/09/14 00:36:20;;;;;;;0.30;0.30;;;;;;;18.60;58.44;100106.19;4981608;28;20027;-74
2021/09/14 00:38:46;;;;;;;0.30;0.30;;;;;;;18.57;58.64;100096.56;4982909;28;20038;-75
2021/09/14 00:41:12;;;;;;;0.38;0.30;;;;;;;18.58;58.36;100089.91;4959751;28;20062;-74
2021/09/14 00:43:38;;;;;;;0.35;0.35;;;;;;;18.58;58.60;100098.22;4981120;28;20031;-73
2021/09/14 00:46:03;;;;;;;0.40;0.40;;;;;;;18.58;58.64;100098.22;4973481;28;20110;-73
2021/09/14 00:48:29;;;;;;;0.50;0.50;;;;;;;18.60;59.22;100097.88;4945880;28;20504;-74
2021/09/14 00:50:54;;;;;;;0.30;0.30;;;;;;;18.58;58.92;100097.41;4981609;28;20030;-74
2021/09/14 00:53:20;;;;;;;0.20;0.20;;;;;;;18.57;58.86;100088.25;4973243;28;20039;-73
2021/09/14 00:55:46;;;;;;;0.40;0.40;;;;;;;18.59;58.95;100088.75;4979184;28;20030;-74
2021/09/14 00:58:11;;;;;;;0.40;0.40;;;;;;;18.58;58.58;100092.66;4978110;28;20499;-72
2021/09/14 01:00:37;;;;;;;0.30;0.30;;;;;;;18.56;58.92;100089.44;4976183;28;20069;-72
2021/09/14 01:03:03;;;;;;;0.30;0.30;;;;;;;18.57;58.80;100084.69;4961830;28;20123;-73
2021/09/14 01:05:29;;;;;;;0.32;0.32;;;;;;;18.58;58.95;100078.81;4978044;28;20030;-73
2021/09/14 01:07:54;;;;;;;0.60;0.60;;;;;;;18.60;59.15;100076.56;4979215;28;20022;-73
2021/09/14 01:10:20;;;;;;;0.60;0.60;;;;;;;18.59;59.16;100066.63;4974901;28;20056;-74
2021/09/14 01:12:47;;;;;;;0.45;0.45;;;;;;;18.58;59.12;100064.97;4978823;28;20026;-74
2021/09/14 01:15:12;;;;;;;0.68;0.68;;;;;;;18.60;59.29;100068.25;4982629;28;20034;-75
2021/09/14 01:17:38;;;;;;;0.60;0.55;;;;;;;18.65;59.37;100075.56;4980739;28;20034;-73
2021/09/14 01:20:04;;;;;;;0.50;0.50;;;;;;;18.61;59.45;100069.84;4979612;28;20035;-73
2021/09/14 01:22:33;;;;;;;0.45;0.40;;;;;;;18.56;59.83;100061.75;4975892;28;20030;-73
2021/09/14 01:25:00;;;;;;;3.53;1.10;;;;;;;18.56;59.60;100060.91;4980404;28;20034;-74
2021/09/14 01:27:25;;;;;;;0.52;0.52;;;;;;;18.49;59.80;100062.22;5003688;28;20030;-74
2021/09/14 01:32:35;;;;;;;0.60;0.60;;;;;;;18.46;60.11;100068.41;4988666;28;20073;-73
2021/09/14 01:35:09;;;;;;;0.50;0.50;;;;;;;18.43;59.67;100058.00;4982976;28;20018;-76
2021/09/14 01:37:34;;;;;;;0.70;0.70;;;;;;;18.39;60.15;100065.34;4995674;28;20038;-75
2021/09/14 01:40:00;;;;;;;0.50;0.50;;;;;;;18.38;60.52;100066.47;4991927;28;20034;-73
2021/09/14 01:42:25;;;;;;;0.93;0.77;;;;;;;18.39;60.06;100067.31;4987549;28;20030;-74
2021/09/14 01:44:51;;;;;;;0.45;0.45;;;;;;;18.38;60.34;100052.63;4993866;28;20026;-75
2021/09/14 01:47:16;;;;;;;0.90;0.90;;;;;;;18.40;60.89;100057.84;4984636;28;20039;-74
2021/09/14 01:49:46;;;;;;;0.85;0.85;;;;;;;18.40;60.88;100044.00;4993937;28;20042;-74
2021/09/14 01:52:12;;;;;;;0.80;0.80;;;;;;;18.38;60.88;100032.44;4973724;28;20038;-72
2021/09/14 01:54:37;;;;;;;0.90;0.90;;;;;;;18.35;61.08;100024.81;4948226;28;20022;-74
2021/09/14 01:57:03;;;;;;;1.10;1.10;;;;;;;18.29;61.02;100013.88;4980900;28;20041;-74
2021/09/14 01:59:30;;;;;;;0.90;0.90;;;;;;;18.28;61.17;100017.81;4997434;28;20041;-73
2021/09/14 02:02:04;;;;;;;1.15;1.10;;;;;;;18.27;60.92;100016.19;4981620;28;20030;-73
2021/09/14 02:38:18;;;;;;;3.08;2.88;;;;;;;18.04;63.21;99978.78;4999878;28;20498;-73
2021/09/14 02:45:05;;;;;;;2.00;1.90;;;;;;;17.99;63.03;99965.09;5015877;28;20026;-74
2021/09/14 03:01:04;;;;;;;3.42;2.33;;;;;;;18.02;63.42;99958.91;5025903;28;20030;-73
2021/09/14 03:03:30;;;;;;;2.50;2.40;;;;;;;17.99;63.77;99957.66;5026573;28;20056;-74
2021/09/14 03:05:55;;;;;;;2.38;2.22;;;;;;;17.99;63.82;99956.81;4991403;28;20034;-74
2021/09/14 03:08:21;;;;;;;2.45;2.35;;;;;;;17.99;63.76;99951.28;4986211;28;20057;-74
2021/09/14 03:10:46;;;;;;;2.47;2.35;;;;;;;17.98;64.05;99958.78;4988032;28;20033;-74
2021/09/14 03:13:12;;;;;;;3.67;2.95;;;;;;;17.96;64.30;99950.81;5004418;28;20034;-75
2021/09/14 03:15:37;;;;;;;2.83;2.63;;;;;;;17.99;64.54;99954.88;5006531;28;20028;-74
2021/09/14 03:18:03;;;;;;;3.05;2.85;;;;;;;17.99;64.71;99948.50;5006267;28;20060;-74
2021/09/14 03:20:28;;;;;;;3.10;2.83;;;;;;;18.01;64.51;99946.25;5024048;28;20025;-73
2021/09/14 03:22:54;;;;;;;2.58;2.38;;;;;;;17.97;64.51;99946.06;5010813;28;20215;-74
2021/09/14 03:25:19;;;;;;;3.05;2.80;;;;;;;17.99;64.33;99951.28;5023726;28;20030;-73
2021/09/14 03:27:45;;;;;;;1.70;1.70;;;;;;;17.96;64.32;99956.34;5006914;28;20037;-76
2021/09/14 03:30:10;;;;;;;1.73;1.63;;;;;;;17.94;64.22;99953.06;4998282;28;20097;-74
2021/09/14 03:32:36;;;;;;;1.70;1.60;;;;;;;17.96;64.68;99955.53;5005854;28;20040;-73
2021/09/14 03:35:02;;;;;;;1.73;1.63;;;;;;;17.96;64.29;99956.34;5002866;28;20030;-74
2021/09/14 03:37:27;;;;;;;1.40;1.30;;;;;;;17.98;64.64;99949.66;5006627;28;20029;-76
2021/09/14 03:40:21;;;;;;;1.95;1.83;;;;;;;17.90;64.12;99932.75;5020569;23;20054;-74
2021/09/14 03:42:49;;;;;;;4.80;1.80;;;;;;;17.97;64.71;99940.53;4989961;28;20030;-76
2021/09/14 03:45:15;;;;;;;1.85;1.75;;;;;;;17.95;65.03;99935.34;4992003;28;20034;-77
2021/09/14 03:47:40;;;;;;;1.52;1.42;;;;;;;17.95;64.64;99929.00;4975991;28;20122;-77
2021/09/14 03:50:06;;;;;;;2.50;2.40;;;;;;;17.92;64.70;99927.69;5000475;28;20053;-79
2021/09/14 03:52:32;;;;;;;1.52;1.52;;;;;;;17.92;64.54;99932.44;4975625;28;20463;-79
2021/09/14 03:54:57;;;;;;;1.67;1.58;;;;;;;17.93;64.89;99929.34;4972263;28;20106;-78
2021/09/14 03:57:22;;;;;;;1.55;1.45;;;;;;;17.92;64.76;99927.69;4960469;28;20402;-78
2021/09/14 03:59:48;;;;;;;1.60;1.50;;;;;;;17.96;64.54;99916.81;5008122;28;20034;-77
2021/09/14 04:10:03;;;;;;;2.28;2.17;;;;;;;17.95;64.69;99915.19;4991002;28;20127;-76
2021/09/14 04:12:39;;;;;;;1.88;1.55;;;;;;;17.92;64.62;99911.09;4998984;28;20041;-76
2021/09/14 04:15:06;;;;;;;1.40;1.40;;;;;;;18.03;64.61;99917.09;4980663;28;20030;-78
2021/09/14 04:17:31;;;;;;;1.30;1.20;;;;;;;18.05;64.66;99914.03;4971494;28;20034;-77
2021/09/14 04:19:57;;;;;;;1.33;1.23;;;;;;;18.06;64.91;99919.22;4989152;28;20058;-77
2021/09/14 04:22:22;;;;;;;1.35;1.27;;;;;;;18.03;64.62;99905.22;4989505;28;20035;-76
2021/09/14 04:24:48;;;;;;;2.05;1.15;;;;;;;18.04;64.90;99912.38;4990893;28;20026;-75
2021/09/14 04:27:13;;;;;;;1.88;1.00;;;;;;;18.05;64.58;99908.50;4969937;28;20018;-77
2021/09/14 04:29:39;;;;;;;0.77;0.77;;;;;;;18.03;65.16;99910.75;4984338;28;20026;-76
2021/09/14 04:32:04;;;;;;;0.77;0.77;;;;;;;18.02;64.55;99903.59;4989559;28;20065;-77
2021/09/14 04:34:30;;;;;;;3.63;1.02;;;;;;;17.99;64.88;99905.09;4971369;28;20082;-76
2021/09/14 04:36:55;;;;;;;1.80;1.70;;;;;;;18.04;64.31;99906.84;5003593;28;20026;-76
2021/09/14 04:39:21;;;;;;;0.80;0.80;;;;;;;18.02;64.59;99909.13;4987107;28;20038;-77
2021/09/14 04:41:47;;;;;;;1.60;1.50;;;;;;;18.04;64.98;99915.16;5001209;28;20042;-77
2021/09/14 04:44:13;;;;;;;1.30;1.30;;;;;;;18.05;64.96;99914.03;4984673;28;20037;-76
2021/09/14 04:46:38;;;;;;;2.08;1.98;;;;;;;18.04;64.92;99913.19;5003504;28;20050;-78
2021/09/14 04:49:04;;;;;;;2.47;1.85;;;;;;;18.08;64.76;99922.47;4970366;28;20034;-75
2021/09/14 04:51:30;;;;;;;2.13;1.95;;;;;;;18.08;65.33;99914.16;4974355;28;20373;-78
2021/09/14 04:53:55;;;;;;;2.58;1.45;;;;;;;18.10;65.07;99924.91;4987620;28;20030;-77
2021/09/14 04:56:21;;;;;;;1.48;1.30;;;;;;;18.10;65.09;99917.41;4959196;28;20054;-76
2021/09/14 04:58:49;;;;;;;0.93;0.93;;;;;;;18.07;64.96;99918.06;4971449;28;20026;-77
2021/09/14 05:01:19;;;;;;;1.80;1.70;;;;;;;18.11;64.87;99924.56;4968989;28;20030;-78
2021/09/14 05:03:45;;;;;;;1.20;1.20;;;;;;;18.12;64.80;99925.38;4972371;28;20042;-77
2021/09/14 05:06:14;;;;;;;1.20;0.90;;;;;;;18.12;64.77;99925.38;4984658;28;20066;-78
2021/09/14 05:08:39;;;;;;;0.75;0.75;;;;;;;18.12;64.82;99934.50;4999993;28;20026;-78
2021/09/14 05:11:05;;;;;;;0.70;0.70;;;;;;;18.14;65.09;99928.63;5004139;28;20491;-79
2021/09/14 05:13:31;;;;;;;1.85;0.65;;;;;;;18.13;64.64;99932.53;4985970;28;20053;-72
2021/09/14 05:15:57;;;;;;;0.85;0.85;;;;;;;18.13;64.95;99927.00;4984138;28;20361;-73
2021/09/14 05:18:26;;;;;;;0.65;0.65;;;;;;;18.13;64.92;99924.25;4994746;28;20035;-76
2021/09/14 05:20:52;;;;;;;0.50;0.50;;;;;;;18.17;64.67;99925.22;4985939;28;20022;-76
2021/09/14 05:23:30;;;;;;;0.80;0.80;;;;;;;18.21;65.30;99911.50;4997802;28;20030;-76
2021/09/14 05:25:57;;;;;;;0.70;0.70;;;;;;;18.24;64.80;99911.69;4961486;28;20018;-78
2021/09/14 05:28:23;;;;;;;2.58;1.65;;;;;;;18.25;65.28;99912.50;4997145;28;20058;-78
2021/09/14 05:30:49;;;;;;;1.65;0.90;;;;;;;18.28;64.94;99912.66;4988022;28;20029;-77
2021/09/14 05:33:15;;;;;;;1.50;1.40;;;;;;;18.31;65.01;99912.00;4980748;28;20034;-80
2021/09/14 05:35:52;;;;;;;2.00;1.90;;;;;;;18.36;65.07;99905.47;4979372;28;20029;-74
2021/09/14 05:38:19;;;;;;;2.33;2.22;;;;;;;18.36;65.03;99912.97;4999576;28;20125;-76
2021/09/14 05:40:48;;;;;;;2.30;2.20;;;;;;;18.32;64.88;99907.25;4998596;28;20061;-74
2021/09/14 05:43:16;;;;;;;3.53;3.30;;;;;;;18.28;65.59;99909.88;4984508;28;20054;-74
2021/09/14 05:45:42;;;;;;;2.50;2.40;;;;;;;18.26;65.22;99909.38;4969175;28;20041;-74
2021/09/14 05:48:07;;;;;;;2.83;2.72;;;;;;;18.26;65.52;99914.91;4992382;28;20536;-74
2021/09/14 05:50:33;;;;;;;2.28;2.10;;;;;;;18.25;65.26;99918.03;5002854;28;20030;-74
2021/09/14 05:52:58;;;;;;;1.85;1.75;;;;;;;18.23;65.66;99921.13;4966712;28;20042;-76
2021/09/14 05:55:24;;;;;;;3.13;2.05;;;;;;;18.24;65.10;99919.97;5002055;28;20023;-75
2021/09/14 05:57:49;;;;;;;2.53;2.13;;;;;;;18.24;65.51;99919.97;4970376;28;20045;-75
2021/09/14 06:00:15;;;;;;;3.20;2.47;;;;;;;18.23;65.46;99914.78;4967411;28;20090;-72
2021/09/14 06:02:41;;;;;;;2.92;2.83;;;;;;;18.23;65.36;99910.06;4983695;28;20019;-73
2021/09/14 06:05:09;;;;;;;3.58;3.45;;;;;;;18.24;65.57;99900.63;4999218;28;20050;-73
2021/09/14 06:07:37;;;;;;;3.65;3.45;;;;;;;18.21;65.96;99892.97;5002176;28;20030;-77
2021/09/14 06:10:13;;;;;;;4.57;4.28;;;;;;;18.25;65.98;99887.56;4986668;28;20042;-76
2021/09/14 06:12:39;;;;;;;3.60;3.40;;;;;;;18.20;66.19;99879.47;4979381;28;20534;-76
2021/09/14 06:15:05;;;;;;;3.55;3.30;;;;;;;18.22;66.38;99879.94;4971697;28;20113;-76
2021/09/14 06:17:30;;;;;;;5.10;4.72;;;;;;;18.26;66.42;99881.72;4967390;28;20044;-73
2021/09/14 06:19:56;;;;;;;5.20;4.90;;;;;;;18.29;66.13;99886.59;4979171;28;20030;-71
2021/09/14 06:22:21;;;;;;;4.70;4.30;;;;;;;18.30;66.28;99885.44;4965623;28;20042;-73
2021/09/14 06:24:47;;;;;;;5.95;3.53;;;;;;;18.29;66.61;99886.59;4971366;28;20477;-72
2021/09/14 06:27:15;;;;;;;4.93;4.53;;;;;;;18.33;66.66;99892.28;5005841;28;20037;-72
2021/09/14 06:29:40;;;;;;;4.82;4.53;;;;;;;18.33;66.69;99880.41;5004270;28;20089;-72
2021/09/14 06:32:09;;;;;;;5.53;4.68;;;;;;;18.34;66.25;99887.53;4997765;28;20035;-75
2021/09/14 06:34:43;;;;;;;3.88;3.67;;;;;;;18.33;66.54;99886.75;4974133;28;20018;-76
2021/09/14 06:37:08;;;;;;;4.15;3.78;;;;;;;18.30;67.23;99893.75;5001322;28;20137;-74
2021/09/14 06:39:35;;;;;;;4.13;3.88;;;;;;;18.25;66.77;99902.25;5002842;28;20045;-73
2021/09/14 06:42:01;;;;;;;3.42;3.22;;;;;;;18.19;66.85;99908.28;4980663;28;20042;-75
2021/09/14 06:44:26;;;;;;;4.05;3.85;;;;;;;18.10;67.22;99894.47;4988769;28;20046;-74
2021/09/14 06:46:52;;;;;;;2.42;2.33;;;;;;;18.07;67.93;99881.28;4969110;28;20031;-73
2021/09/14 06:49:18;;;;;;;3.65;3.45;;;;;;;18.05;68.02;99891.91;4997474;28;20033;-73
2021/09/14 06:51:43;;;;;;;5.22;4.85;;;;;;;17.95;67.98;99893.84;4990005;28;20062;-74
2021/09/14 06:54:11;;;;;;;3.65;3.45;;;;;;;17.93;68.55;99896.16;4972352;28;20754;-73
2021/09/14 06:56:37;;;;;;;2.20;2.10;;;;;;;17.92;68.69;99900.03;4963526;28;20042;-71
2021/09/14 06:59:03;;;;;;;3.85;3.65;;;;;;;17.91;68.22;99903.94;4984223;28;20340;-74
2021/09/14 07:01:30;;;;;;;3.92;3.72;;;;;;;17.88;68.92;99896.28;4967762;28;20031;-75
2021/09/14 07:03:56;;;;;;;3.05;2.92;;;;;;;17.91;68.52;99903.94;4969114;28;20054;-74
2021/09/14 07:06:22;;;;;;;4.18;3.97;;;;;;;17.88;69.00;99903.75;5003271;28;20046;-73
2021/09/14 07:08:48;;;;;;;3.78;3.63;;;;;;;17.84;69.03;99894.50;5002683;28;20022;-74
2021/09/14 07:11:14;;;;;;;3.97;3.75;;;;;;;17.84;69.27;99894.50;5005362;28;20034;-75
2021/09/14 07:13:41;;;;;;;3.25;3.03;;;;;;;17.89;69.61;99902.63;4985780;28;20058;-74
2021/09/14 07:16:36;;;;;;;4.38;2.35;;;;;;;17.93;69.69;99896.16;4988264;28;20085;-74
2021/09/14 07:19:02;;;;;;;4.00;3.80;;;;;;;17.99;69.94;99904.25;4996124;28;20038;-73
2021/09/14 07:21:27;;;;;;;2.33;2.13;;;;;;;18.01;70.11;99902.00;4983354;28;20030;-73
2021/09/14 07:23:53;;;;;;;3.58;3.35;;;;;;;18.03;69.66;99905.22;5000927;28;20030;-74
2021/09/14 07:26:19;;;;;;;3.30;3.10;;;;;;;18.04;69.65;99895.78;5002322;28;20053;-74
2021/09/14 07:28:44;;;;;;;4.65;4.25;;;;;;;18.06;70.22;99897.09;4981687;28;20038;-74
2021/09/14 07:31:11;;;;;;;4.00;3.58;;;;;;;18.07;70.41;99906.19;5003310;28;20031;-73
2021/09/14 07:33:37;;;;;;;2.40;2.30;;;;;;;18.09;69.58;99901.13;4986866;28;20026;-73
2021/09/14 07:36:08;;;;;;;3.00;2.90;;;;;;;18.11;69.52;99907.16;4987842;28;20133;-75
2021/09/14 07:38:36;;;;;;;3.08;2.88;;;;;;;18.12;69.95;99908.78;4999076;28;20038;-73
2021/09/14 07:41:02;;;;;;;1.38;1.25;;;;;;;18.12;69.75;99917.06;4979234;28;20396;-73
2021/09/14 07:43:28;;;;;;;1.45;1.35;;;;;;;18.18;69.95;99924.09;4982849;28;20109;-74
2021/09/14 07:45:53;;;;;;;1.42;1.35;;;;;;;18.21;69.59;99922.59;4981983;28;20304;-73
2021/09/14 07:48:19;;;;;;;0.93;0.93;;;;;;;18.24;69.42;99917.22;4967200;28;20362;-75
2021/09/14 07:50:44;;;;;;;0.75;0.75;;;;;;;18.27;69.91;99916.56;4981261;28;20121;-74
2021/09/14 07:53:10;;;;;;;1.80;1.70;;;;;;;18.28;69.65;99911.81;4968271;28;20492;-74
2021/09/14 07:55:36;;;;;;;1.10;1.10;;;;;;;18.31;70.02;99917.53;4983918;28;20037;-75
2021/09/14 07:58:01;;;;;;;0.70;0.70;;;;;;;18.35;69.60;99911.31;4980636;28;20039;-73
2021/09/14 08:00:27;;;;;;;0.75;0.75;;;;;;;18.40;69.31;99909.19;4993248;28;20080;-74
2021/09/14 08:02:54;;;;;;;0.30;0.30;;;;;;;18.44;69.22;99909.31;4982466;28;20105;-73
2021/09/14 08:05:20;;;;;;;0.50;0.50;;;;;;;18.49;69.16;99911.94;4981687;28;20057;-73
2021/09/14 08:07:45;;;;;;;0.60;0.60;;;;;;;18.51;69.12;99904.09;4985104;28;20504;-75
2021/09/14 08:10:11;;;;;;;0.77;0.77;;;;;;;18.53;69.47;99907.34;4982661;28;20525;-74
2021/09/14 08:12:36;;;;;;;0.50;0.50;;;;;;;18.56;69.40;99900.31;4955308;28;20031;-73
2021/09/14 08:15:02;;;;;;;1.13;1.13;;;;;;;18.58;68.83;99904.38;4961885;28;20255;-74
2021/09/14 08:17:27;;;;;;;2.28;2.17;;;;;;;18.57;69.30;99908.28;4979248;28;20043;-74
2021/09/14 08:19:53;;;;;;;1.42;1.42;;;;;;;18.58;69.04;99904.38;4982192;28;20473;-73
2021/09/14 08:22:19;;;;;;;1.30;1.30;;;;;;;18.62;69.16;99910.88;4979499;28;20019;-72
2021/09/14 08:24:45;;;;;;;1.17;1.17;;;;;;;18.63;69.05;99901.44;4979672;28;20066;-73
2021/09/14 08:27:11;;;;;;;1.15;1.15;;;;;;;18.63;69.40;99895.06;4981257;28;20039;-72
2021/09/14 08:29:36;;;;;;;1.77;1.33;;;;;;;18.74;69.64;99906.59;4974699;28;20019;-75
2021/09/14 08:32:02;;;;;;;2.45;2.35;;;;;;;18.75;69.15;99902.66;4978442;28;20038;-73
2021/09/14 08:34:27;;;;;;;2.10;2.00;;;;;;;18.81;69.26;99906.91;4984405;28;20031;-74
2021/09/14 08:36:53;;;;;;;1.52;1.42;;;;;;;18.83;69.27;99904.59;4978603;28;20041;-73
2021/09/14 08:39:18;;;;;;;1.58;1.55;;;;;;;18.87;68.67;99911.13;4959489;28;20114;-73
2021/09/14 08:41:47;;;;;;;1.40;1.40;;;;;;;18.82;69.01;99911.25;4962263;28;20039;-74
2021/09/14 08:44:13;;;;;;;0.80;0.80;;;;;;;18.85;68.61;99910.59;4981433;28;20070;-73
2021/09/14 08:46:38;;;;;;;0.70;0.70;;;;;;;18.95;68.51;99924.13;4979551;28;20050;-74
2021/09/14 08:49:04;;;;;;;2.97;0.70;;;;;;;18.97;68.91;99910.72;4981279;28;20041;-74
2021/09/14 08:51:29;;;;;;;0.77;0.77;;;;;;;19.05;68.80;99911.03;4982013;28;20042;-74
2021/09/14 08:53:55;;;;;;;0.75;0.75;;;;;;;19.14;68.73;99909.00;4974650;28;20054;-71
2021/09/14 08:56:20;;;;;;;0.88;0.88;;;;;;;19.25;68.59;99921.31;4981111;28;20049;-73
2021/09/14 08:58:59;;;;;;;0.77;0.77;;;;;;;19.32;68.41;99916.03;4980326;28;20038;-73
2021/09/14 09:01:25;;;;;;;0.90;0.90;;;;;;;19.36;68.18;99917.00;4973369;28;20062;-73
2021/09/14 09:04:05;;;;;;;1.30;1.30;;;;;;;19.50;68.51;99921.47;4982304;28;20031;-73
2021/09/14 09:06:36;;;;;;;1.35;1.30;;;;;;;19.54;68.38;99925.97;4978685;28;20054;-74
2021/09/14 09:09:08;;;;;;;1.55;1.48;;;;;;;19.63;68.08;99920.34;4979422;28;20034;-74
2021/09/14 09:11:36;;;;;;;1.05;1.05;;;;;;;19.73;68.00;99921.09;4978397;28;20026;-73
2021/09/14 09:14:04;;;;;;;0.90;0.77;;;;;;;19.85;67.78;99919.22;4977275;28;20051;-74
2021/09/14 09:16:30;;;;;;;1.17;1.17;;;;;;;19.98;67.65;99920.06;4979759;28;20099;-74
2021/09/14 09:19:01;;;;;;;2.13;2.03;;;;;;;20.08;67.85;99915.22;4982934;28;20056;-74
2021/09/14 09:21:38;;;;;;;1.27;1.27;;;;;;;20.18;67.74;99917.56;4979479;28;20110;-74
2021/09/14 09:24:07;;;;;;;1.40;1.30;;;;;;;20.22;67.15;99918.50;4976397;28;20027;-74
2021/09/14 09:26:35;;;;;;;1.10;1.00;;;;;;;20.24;66.91;99913.44;4983639;28;20030;-73
2021/09/14 09:29:05;;;;;;;1.67;1.58;;;;;;;20.32;66.97;99914.50;4978825;28;20034;-74
2021/09/14 09:31:32;;;;;;;2.00;1.90;;;;;;;20.32;67.07;99922.81;4980500;28;20030;-73
2021/09/14 09:34:09;;;;;;;1.15;1.15;;;;;;;20.37;66.92;99926.19;4978516;28;20029;-73
2021/09/14 09:36:37;;;;;;;1.50;1.40;;;;;;;20.42;66.83;99922.38;4996268;28;20038;-73
2021/09/14 09:39:08;;;;;;;0.90;0.90;;;;;;;20.51;66.85;99927.81;4978720;28;20058;-74
2021/09/14 09:41:38;;;;;;;1.00;1.00;;;;;;;20.56;66.78;99927.59;4988945;28;20106;-72
2021/09/14 09:44:12;;;;;;;0.60;0.60;;;;;;;20.67;66.53;99928.78;4987544;28;20042;-74
2021/09/14 09:46:38;;;;;;;0.50;0.50;;;;;;;20.74;66.41;99928.22;5000605;28;20026;-72
2021/09/14 09:49:06;;;;;;;0.57;0.57;;;;;;;20.83;66.43;99930.88;4985912;28;20093;-72
2021/09/14 09:51:33;;;;;;;0.80;0.80;;;;;;;20.91;66.08;99928.00;4985062;28;20054;-74
2021/09/14 09:54:01;;;;;;;1.15;1.05;;;;;;;20.99;66.07;99923.47;4983699;28;20042;-74
2021/09/14 09:56:29;;;;;;;0.95;0.88;;;;;;;21.12;65.83;99927.03;4984654;28;20034;-74
2021/09/14 09:58:55;;;;;;;1.98;1.00;;;;;;;21.25;65.46;99925.84;5002698;28;20054;-72
2021/09/14 10:01:23;;;;;;;0.95;0.95;;;;;;;21.41;65.31;99925.94;5001273;28;20054;-72
2021/09/14 10:03:51;;;;;;;1.73;1.73;;;;;;;21.64;65.32;99925.44;5005517;28;20030;-73
2021/09/14 10:06:23;;;;;;;1.10;1.10;;;;;;;21.87;65.14;99919.31;5003477;28;20053;-72
2021/09/14 10:08:53;;;;;;;0.88;0.88;;;;;;;22.17;64.86;99924.50;4962615;28;20133;-73
2021/09/14 10:11:28;;;;;;;0.47;0.47;;;;;;;22.43;64.26;99922.06;4986874;28;20062;-73
2021/09/14 10:14:04;;;;;;;0.68;0.68;;;;;;;22.70;64.05;99919.53;4978349;28;20034;-73
2021/09/14 10:16:31;;;;;;;0.50;0.50;;;;;;;22.78;63.52;99920.50;4984276;28;20070;-73
2021/09/14 10:19:09;;;;;;;1.30;1.10;;;;;;;22.87;63.48;99923.09;4985208;28;20061;-73
2021/09/14 10:21:35;;;;;;;1.10;1.10;;;;;;;22.82;62.81;99921.41;5005784;28;20026;-72
2021/09/14 10:24:09;;;;;;;0.50;0.50;;;;;;;22.80;62.91;99923.75;4985866;28;20030;-74
2021/09/14 10:26:35;;;;;;;0.50;0.50;;;;;;;22.82;62.61;99918.59;4988692;28;20062;-73
2021/09/14 10:29:20;;;;;;;0.50;0.50;;;;;;;22.93;62.69;99921.66;4964404;28;20057;-73
2021/09/14 10:32:00;;;;;;;0.40;0.40;;;;;;;22.98;62.73;99913.00;4996443;28;20054;-73
2021/09/14 10:34:25;;;;;;;0.60;0.60;;;;;;;23.10;62.63;99926.88;4992058;28;20029;-73
2021/09/14 10:37:07;;;;;;;0.50;0.50;;;;;;;23.22;62.29;99922.34;4994049;28;20026;-74
2021/09/14 10:39:39;;;;;;;0.50;0.50;;;;;;;23.30;61.74;99921.34;4980947;28;20026;-74
2021/09/14 10:42:23;;;;;;;0.70;0.70;;;;;;;23.38;61.29;99914.75;4985804;28;20077;-76
2021/09/14 10:44:51;;;;;;;0.40;0.40;;;;;;;23.35;61.22;99912.69;4999515;28;20121;-74
2021/09/14 10:47:19;;;;;;;0.20;0.20;;;;;;;23.43;61.70;99911.66;4969929;28;20065;-75
2021/09/14 10:49:51;;;;;;;0.20;0.20;;;;;;;23.65;61.17;99917.69;4984391;28;20129;-74
2021/09/14 10:52:29;;;;;;;0.30;0.30;;;;;;;23.76;61.09;99923.47;4982442;28;20034;-74
2021/09/14 10:54:55;;;;;;;0.10;0.10;;;;;;;23.85;60.33;99924.06;4988005;28;20100;-77
2021/09/14 10:57:45;;;;;;;0.30;0.30;;;;;;;23.95;60.93;99919.91;4985871;28;20042;-74
2021/09/14 11:00:13;;;;;;;0.20;0.20;;;;;;;23.97;60.54;99912.78;4993984;28;20113;-76
2021/09/14 11:02:39;;;;;;;0.20;0.20;;;;;;;24.16;60.42;99920.31;5002145;28;20105;-75
2021/09/14 11:05:06;;;;;;;0.20;0.20;;;;;;;24.29;60.10;99922.94;4987889;28;20058;-75
2021/09/14 11:07:40;;;;;;;0.20;0.20;;;;;;;24.44;60.27;99910.81;4970332;28;20080;-75
2021/09/14 11:10:13;;;;;;;0.10;0.10;;;;;;;24.73;59.97;99919.72;4982848;28;20026;-74
2021/09/14 11:12:45;;;;;;;0.10;0.10;;;;;;;25.00;59.90;99911.31;5002322;28;20040;-75
2021/09/14 11:15:10;;;;;;;1.27;1.27;;;;;;;25.25;58.36;99918.09;4982508;28;20033;-74
2021/09/14 11:17:36;;;;;;;0.60;0.60;;;;;;;25.51;58.78;99924.88;4963369;28;20034;-75
2021/09/14 11:20:18;;;;;;;1.55;0.10;;;;;;;25.76;58.06;99919.59;4975588;28;20031;-78
2021/09/14 11:22:48;;;;;;;0.22;0.22;;;;;;;25.91;57.17;99926.16;4996621;28;20031;-76
2021/09/14 11:25:22;;;;;;;0.20;0.20;;;;;;;25.95;56.57;99927.00;5007438;28;20084;-76
2021/09/14 11:28:01;;;;;;;0.70;0.70;;;;;;;25.98;56.47;99924.63;4980282;28;20030;-76
2021/09/14 11:30:29;;;;;;;0.57;0.57;;;;;;;25.85;56.47;99936.09;4986616;28;20034;-76
2021/09/14 11:32:55;;;;;;;2.25;2.15;;;;;;;25.73;55.20;99927.94;4983449;28;20030;-76
2021/09/14 11:35:22;;;;;;;0.60;0.60;;;;;;;25.54;55.52;99934.50;4985285;28;20039;-75
2021/09/14 11:38:00;;;;;;;3.78;3.47;;;;;;;25.30;54.99;99941.34;4983857;28;20461;-75
2021/09/14 11:40:27;;;;;;;2.50;2.40;;;;;;;24.96;55.59;99935.66;4972761;28;20095;-75
2021/09/14 11:43:00;;;;;;;3.45;3.25;;;;;;;24.79;55.64;99946.16;4986298;28;20038;-74
2021/09/14 11:45:27;;;;;;;3.28;3.08;;;;;;;24.57;56.20;99943.00;4985574;28;20033;-75
2021/09/14 11:47:55;;;;;;;3.88;3.67;;;;;;;24.38;56.65;99948.63;4969997;28;20027;-75
2021/09/14 11:50:31;;;;;;;3.30;3.10;;;;;;;24.22;56.96;99952.38;4979721;28;20053;-75
2021/09/14 11:53:29;;;;;;;2.90;2.70;;;;;;;24.13;57.08;99957.34;5001164;28;20019;-75
2021/09/14 11:55:54;;;;;;;1.83;1.73;;;;;;;24.07;57.42;99950.47;4964523;28;20030;-76
2021/09/14 11:58:34;;;;;;;2.20;2.10;;;;;;;24.15;56.95;99946.63;5003636;28;20095;-76
2021/09/14 12:01:11;;;;;;;2.65;2.55;;;;;;;24.08;56.88;99940.91;4980809;28;20133;-75
2021/09/14 12:03:38;;;;;;;3.13;3.03;;;;;;;23.99;57.00;99943.94;4978333;28;20457;-74
2021/09/14 12:06:07;;;;;;;3.85;3.47;;;;;;;23.90;56.92;99940.53;5004154;28;20057;-76
2021/09/14 12:08:41;;;;;;;2.78;2.67;;;;;;;23.82;57.01;99939.56;4997404;28;20050;-76
2021/09/14 12:11:07;;;;;;;3.17;2.95;;;;;;;23.80;57.52;99941.94;4984740;28;20026;-75
2021/09/14 12:13:42;;;;;;;2.80;2.70;;;;;;;23.80;56.83;99933.56;4986049;28;20026;-75
2021/09/14 12:16:13;;;;;;;1.50;1.40;;;;;;;23.87;57.09;99935.69;4983246;28;20022;-75
2021/09/14 12:18:49;;;;;;;1.35;1.25;;;;;;;23.89;57.28;99938.94;4990727;28;20038;-74
2021/09/14 12:21:20;;;;;;;3.95;3.67;;;;;;;23.79;56.81;99934.72;4977308;28;20117;-76
2021/09/14 12:23:45;;;;;;;4.72;4.53;;;;;;;23.46;57.03;99927.66;4981168;28;20041;-74
2021/09/14 12:26:51;;;;;;;4.20;4.00;;;;;;;23.25;57.53;99932.78;4986945;28;20026;-77
2021/09/14 12:29:28;;;;;;;;;;;;;;;;;;;;;
2021/09/14 12:32:30;;;;;;;;;;;;;;;;;;;;;
2021/09/14 12:35:46;;;;;;;;;;;;;;;;;;;;;
2021/09/14 12:38:35;;;;;;;4.82;4.53;;;;;;;22.44;60.29;99926.47;4993123;28;20058;-74
2021/09/14 12:41:03;;;;;;;6.45;5.50;;;;;;;22.38;60.41;99929.84;4970200;28;20051;-75
2021/09/14 12:43:31;;;;;;;4.93;4.63;;;;;;;22.28;60.99;99937.56;4982545;28;20023;-76
2021/09/14 12:45:57;;;;;;;5.70;5.30;;;;;;;22.01;61.76;99932.84;4982635;28;20027;-74